sensor_id;sensor_type;location;lat;lon;timestamp;P1;durP1;ratioP1;P2;durP2;ratioP2
49103;SDS011;34915;52.926;11.116;2023-05-07T00:01:31;6.87;;;5.53;;
49103;SDS011;34915;52.926;11.116;2023-05-07T00:03:57;6.40;;;4.93;;
49103;SDS011;34915;52.926;11.116;2023-05-07T00:06:23;5.50;;;4.37;;
49103;SDS011;34915;52.926;11.116;2023-05-07T00:08:49;5.70;;;4.40;;
49103;SDS011;34915;52.926;11.116;2023-05-07T00:11:14;5.37;;;4.37;;
49103;SDS011;34915;52.926;11.116;2023-05-07T00:13:40;6.77;;;4.83;;
49103;SDS011;34915;52.926;11.116;2023-05-07T00:16:06;7.10;;;5.20;;
49103;SDS011;34915;52.926;11.116;2023-05-07T00:18:34;7.30;;;4.73;;
49103;SDS011;34915;52.926;11.116;2023-05-07T00:21:00;5.53;;;4.57;;
49103;SDS011;34915;52.926;11.116;2023-05-07T00:23:25;6.60;;;4.90;;
49103;SDS011;34915;52.926;11.116;2023-05-07T00:25:53;6.00;;;4.57;;
49103;SDS011;34915;52.926;11.116;2023-05-07T00:28:18;4.70;;;4.17;;
49103;SDS011;34915;52.926;11.116;2023-05-07T00:30:44;5.10;;;4.50;;
49103;SDS011;34915;52.926;11.116;2023-05-07T00:33:10;6.37;;;4.90;;
49103;SDS011;34915;52.926;11.116;2023-05-07T00:35:35;6.60;;;5.30;;
49103;SDS011;34915;52.926;11.116;2023-05-07T00:38:01;6.00;;;4.53;;
49103;SDS011;34915;52.926;11.116;2023-05-07T00:40:27;5.43;;;4.53;;
49103;SDS011;34915;52.926;11.116;2023-05-07T00:42:52;6.47;;;4.80;;
49103;SDS011;34915;52.926;11.116;2023-05-07T00:45:23;5.00;;;4.00;;
49103;SDS011;34915;52.926;11.116;2023-05-07T00:47:53;5.60;;;4.60;;
49103;SDS011;34915;52.926;11.116;2023-05-07T00:50:22;10.93;;;4.37;;
49103;SDS011;34915;52.926;11.116;2023-05-07T00:52:48;6.53;;;4.97;;
49103;SDS011;34915;52.926;11.116;2023-05-07T00:55:14;6.03;;;5.30;;
49103;SDS011;34915;52.926;11.116;2023-05-07T00:57:40;6.20;;;4.93;;
49103;SDS011;34915;52.926;11.116;2023-05-07T01:00:07;8.43;;;6.27;;
49103;SDS011;34915;52.926;11.116;2023-05-07T01:02:40;7.60;;;5.77;;
49103;SDS011;34915;52.926;11.116;2023-05-07T01:05:07;9.30;;;6.03;;
49103;SDS011;34915;52.926;11.116;2023-05-07T01:07:36;9.70;;;6.60;;
49103;SDS011;34915;52.926;11.116;2023-05-07T01:10:04;8.77;;;6.97;;
49103;SDS011;34915;52.926;11.116;2023-05-07T01:12:31;9.70;;;6.80;;
49103;SDS011;34915;52.926;11.116;2023-05-07T01:14:57;9.23;;;6.43;;
49103;SDS011;34915;52.926;11.116;2023-05-07T01:17:23;7.90;;;5.50;;
49103;SDS011;34915;52.926;11.116;2023-05-07T01:19:49;9.60;;;6.93;;
49103;SDS011;34915;52.926;11.116;2023-05-07T01:22:16;11.83;;;7.33;;
49103;SDS011;34915;52.926;11.116;2023-05-07T01:24:45;10.80;;;5.73;;
49103;SDS011;34915;52.926;11.116;2023-05-07T01:27:11;8.60;;;6.13;;
49103;SDS011;34915;52.926;11.116;2023-05-07T01:29:37;7.93;;;6.27;;
49103;SDS011;34915;52.926;11.116;2023-05-07T01:32:02;7.03;;;5.33;;
49103;SDS011;34915;52.926;11.116;2023-05-07T01:34:30;10.10;;;6.43;;
49103;SDS011;34915;52.926;11.116;2023-05-07T01:36:58;10.93;;;7.37;;
49103;SDS011;34915;52.926;11.116;2023-05-07T01:39:24;10.10;;;6.80;;
49103;SDS011;34915;52.926;11.116;2023-05-07T01:41:53;9.97;;;7.00;;
49103;SDS011;34915;52.926;11.116;2023-05-07T01:44:21;8.80;;;6.40;;
49103;SDS011;34915;52.926;11.116;2023-05-07T01:46:47;8.23;;;5.53;;
49103;SDS011;34915;52.926;11.116;2023-05-07T01:49:14;11.67;;;7.20;;
49103;SDS011;34915;52.926;11.116;2023-05-07T01:51:41;8.87;;;6.60;;
49103;SDS011;34915;52.926;11.116;2023-05-07T01:54:07;8.23;;;6.20;;
49103;SDS011;34915;52.926;11.116;2023-05-07T01:56:33;8.77;;;7.20;;
49103;SDS011;34915;52.926;11.116;2023-05-07T01:58:59;8.73;;;6.40;;
49103;SDS011;34915;52.926;11.116;2023-05-07T02:01:25;9.17;;;6.50;;
49103;SDS011;34915;52.926;11.116;2023-05-07T02:03:52;9.23;;;6.80;;
49103;SDS011;34915;52.926;11.116;2023-05-07T02:06:18;7.80;;;6.20;;
49103;SDS011;34915;52.926;11.116;2023-05-07T02:08:47;7.60;;;6.23;;
49103;SDS011;34915;52.926;11.116;2023-05-07T02:11:12;9.93;;;6.70;;
49103;SDS011;34915;52.926;11.116;2023-05-07T02:13:38;8.10;;;6.00;;
49103;SDS011;34915;52.926;11.116;2023-05-07T02:16:04;8.50;;;6.60;;
49103;SDS011;34915;52.926;11.116;2023-05-07T02:18:30;7.67;;;6.07;;
49103;SDS011;34915;52.926;11.116;2023-05-07T02:20:56;8.53;;;6.53;;
49103;SDS011;34915;52.926;11.116;2023-05-07T02:23:25;6.90;;;5.80;;
49103;SDS011;34915;52.926;11.116;2023-05-07T02:25:51;10.93;;;6.60;;
49103;SDS011;34915;52.926;11.116;2023-05-07T02:28:16;9.60;;;6.60;;
49103;SDS011;34915;52.926;11.116;2023-05-07T02:30:42;8.93;;;6.87;;
49103;SDS011;34915;52.926;11.116;2023-05-07T02:33:07;8.77;;;6.50;;
49103;SDS011;34915;52.926;11.116;2023-05-07T02:35:37;8.70;;;6.00;;
49103;SDS011;34915;52.926;11.116;2023-05-07T02:38:03;7.57;;;5.77;;
49103;SDS011;34915;52.926;11.116;2023-05-07T02:40:28;7.57;;;5.73;;
49103;SDS011;34915;52.926;11.116;2023-05-07T02:42:54;13.07;;;7.93;;
49103;SDS011;34915;52.926;11.116;2023-05-07T02:45:20;10.70;;;6.47;;
49103;SDS011;34915;52.926;11.116;2023-05-07T02:47:46;9.33;;;6.20;;
49103;SDS011;34915;52.926;11.116;2023-05-07T02:50:11;6.33;;;4.53;;
49103;SDS011;34915;52.926;11.116;2023-05-07T02:52:37;7.90;;;6.30;;
49103;SDS011;34915;52.926;11.116;2023-05-07T02:55:03;9.47;;;5.97;;
49103;SDS011;34915;52.926;11.116;2023-05-07T02:57:28;10.30;;;6.83;;
49103;SDS011;34915;52.926;11.116;2023-05-07T02:59:54;9.80;;;6.33;;
49103;SDS011;34915;52.926;11.116;2023-05-07T03:02:20;10.23;;;7.00;;
49103;SDS011;34915;52.926;11.116;2023-05-07T03:04:45;9.63;;;7.13;;
49103;SDS011;34915;52.926;11.116;2023-05-07T03:07:11;9.63;;;6.53;;
49103;SDS011;34915;52.926;11.116;2023-05-07T03:09:38;8.50;;;6.03;;
49103;SDS011;34915;52.926;11.116;2023-05-07T03:12:04;8.73;;;6.90;;
49103;SDS011;34915;52.926;11.116;2023-05-07T03:14:30;9.53;;;6.37;;
49103;SDS011;34915;52.926;11.116;2023-05-07T03:16:55;9.33;;;6.03;;
49103;SDS011;34915;52.926;11.116;2023-05-07T03:19:21;9.10;;;6.30;;
49103;SDS011;34915;52.926;11.116;2023-05-07T03:21:46;7.77;;;6.70;;
49103;SDS011;34915;52.926;11.116;2023-05-07T03:24:12;8.97;;;6.23;;
49103;SDS011;34915;52.926;11.116;2023-05-07T03:26:37;9.07;;;6.33;;
49103;SDS011;34915;52.926;11.116;2023-05-07T03:29:03;8.53;;;5.07;;
49103;SDS011;34915;52.926;11.116;2023-05-07T03:31:31;8.47;;;6.40;;
49103;SDS011;34915;52.926;11.116;2023-05-07T03:33:56;7.97;;;6.40;;
49103;SDS011;34915;52.926;11.116;2023-05-07T03:36:23;9.33;;;7.17;;
49103;SDS011;34915;52.926;11.116;2023-05-07T03:38:49;10.10;;;5.93;;
49103;SDS011;34915;52.926;11.116;2023-05-07T03:41:15;9.57;;;6.40;;
49103;SDS011;34915;52.926;11.116;2023-05-07T03:43:41;8.07;;;6.27;;
49103;SDS011;34915;52.926;11.116;2023-05-07T03:46:06;10.93;;;6.70;;
49103;SDS011;34915;52.926;11.116;2023-05-07T03:48:32;10.00;;;6.40;;
49103;SDS011;34915;52.926;11.116;2023-05-07T03:50:58;9.13;;;6.13;;
49103;SDS011;34915;52.926;11.116;2023-05-07T03:53:24;8.70;;;6.13;;
49103;SDS011;34915;52.926;11.116;2023-05-07T03:55:50;9.07;;;6.93;;
49103;SDS011;34915;52.926;11.116;2023-05-07T03:58:18;8.37;;;5.83;;
49103;SDS011;34915;52.926;11.116;2023-05-07T04:00:44;8.43;;;6.10;;
49103;SDS011;34915;52.926;11.116;2023-05-07T04:03:09;8.63;;;6.33;;
49103;SDS011;34915;52.926;11.116;2023-05-07T04:05:35;8.43;;;6.23;;
49103;SDS011;34915;52.926;11.116;2023-05-07T04:08:01;9.50;;;6.27;;
49103;SDS011;34915;52.926;11.116;2023-05-07T04:10:29;9.93;;;5.70;;
49103;SDS011;34915;52.926;11.116;2023-05-07T04:12:55;7.13;;;5.50;;
49103;SDS011;34915;52.926;11.116;2023-05-07T04:15:24;10.73;;;6.17;;
49103;SDS011;34915;52.926;11.116;2023-05-07T04:17:49;8.77;;;5.27;;
49103;SDS011;34915;52.926;11.116;2023-05-07T04:20:16;8.03;;;5.90;;
49103;SDS011;34915;52.926;11.116;2023-05-07T04:22:42;6.53;;;5.27;;
49103;SDS011;34915;52.926;11.116;2023-05-07T04:25:08;7.77;;;5.57;;
49103;SDS011;34915;52.926;11.116;2023-05-07T04:27:37;12.50;;;6.83;;
49103;SDS011;34915;52.926;11.116;2023-05-07T04:30:03;7.77;;;5.80;;
49103;SDS011;34915;52.926;11.116;2023-05-07T04:32:29;9.40;;;5.73;;
49103;SDS011;34915;52.926;11.116;2023-05-07T04:34:55;7.50;;;6.07;;
49103;SDS011;34915;52.926;11.116;2023-05-07T04:37:21;8.80;;;5.73;;
49103;SDS011;34915;52.926;11.116;2023-05-07T04:39:47;7.77;;;5.80;;
49103;SDS011;34915;52.926;11.116;2023-05-07T04:42:16;7.60;;;5.77;;
49103;SDS011;34915;52.926;11.116;2023-05-07T04:44:43;6.23;;;5.10;;
49103;SDS011;34915;52.926;11.116;2023-05-07T04:47:09;8.00;;;5.67;;
49103;SDS011;34915;52.926;11.116;2023-05-07T04:49:35;8.03;;;5.93;;
49103;SDS011;34915;52.926;11.116;2023-05-07T04:52:00;7.40;;;4.93;;
49103;SDS011;34915;52.926;11.116;2023-05-07T04:54:26;7.97;;;5.80;;
49103;SDS011;34915;52.926;11.116;2023-05-07T04:56:52;8.07;;;5.57;;
49103;SDS011;34915;52.926;11.116;2023-05-07T04:59:22;7.33;;;5.77;;
49103;SDS011;34915;52.926;11.116;2023-05-07T05:01:47;11.43;;;6.80;;
49103;SDS011;34915;52.926;11.116;2023-05-07T05:04:13;8.57;;;6.20;;
49103;SDS011;34915;52.926;11.116;2023-05-07T05:06:39;10.00;;;6.10;;
49103;SDS011;34915;52.926;11.116;2023-05-07T05:09:04;8.97;;;6.37;;
49103;SDS011;34915;52.926;11.116;2023-05-07T05:11:30;7.93;;;6.00;;
49103;SDS011;34915;52.926;11.116;2023-05-07T05:13:56;10.20;;;6.77;;
49103;SDS011;34915;52.926;11.116;2023-05-07T05:16:22;9.63;;;6.07;;
49103;SDS011;34915;52.926;11.116;2023-05-07T05:18:48;6.63;;;4.93;;
49103;SDS011;34915;52.926;11.116;2023-05-07T05:21:14;8.77;;;5.67;;
49103;SDS011;34915;52.926;11.116;2023-05-07T05:23:39;8.73;;;5.67;;
49103;SDS011;34915;52.926;11.116;2023-05-07T05:26:05;7.20;;;5.60;;
49103;SDS011;34915;52.926;11.116;2023-05-07T05:28:30;8.00;;;5.70;;
49103;SDS011;34915;52.926;11.116;2023-05-07T05:30:58;7.63;;;6.03;;
49103;SDS011;34915;52.926;11.116;2023-05-07T05:33:24;8.00;;;5.90;;
49103;SDS011;34915;52.926;11.116;2023-05-07T05:35:49;9.07;;;6.10;;
49103;SDS011;34915;52.926;11.116;2023-05-07T05:38:15;9.23;;;5.90;;
49103;SDS011;34915;52.926;11.116;2023-05-07T05:40:41;7.73;;;5.87;;
49103;SDS011;34915;52.926;11.116;2023-05-07T05:43:06;8.97;;;5.90;;
49103;SDS011;34915;52.926;11.116;2023-05-07T05:45:32;7.80;;;5.23;;
49103;SDS011;34915;52.926;11.116;2023-05-07T05:47:58;10.43;;;5.70;;
49103;SDS011;34915;52.926;11.116;2023-05-07T05:50:23;4.97;;;4.10;;
49103;SDS011;34915;52.926;11.116;2023-05-07T05:52:50;6.67;;;4.33;;
49103;SDS011;34915;52.926;11.116;2023-05-07T05:55:15;8.50;;;5.40;;
49103;SDS011;34915;52.926;11.116;2023-05-07T05:57:41;6.70;;;5.00;;
49103;SDS011;34915;52.926;11.116;2023-05-07T06:00:09;7.47;;;5.20;;
49103;SDS011;34915;52.926;11.116;2023-05-07T06:02:35;6.50;;;5.13;;
49103;SDS011;34915;52.926;11.116;2023-05-07T06:05:00;8.13;;;5.90;;
49103;SDS011;34915;52.926;11.116;2023-05-07T06:07:26;6.20;;;4.83;;
49103;SDS011;34915;52.926;11.116;2023-05-07T06:09:52;7.40;;;5.30;;
49103;SDS011;34915;52.926;11.116;2023-05-07T06:12:17;5.43;;;4.60;;
49103;SDS011;34915;52.926;11.116;2023-05-07T06:14:43;6.47;;;5.17;;
49103;SDS011;34915;52.926;11.116;2023-05-07T06:17:09;5.80;;;4.87;;
49103;SDS011;34915;52.926;11.116;2023-05-07T06:19:37;10.00;;;7.03;;
49103;SDS011;34915;52.926;11.116;2023-05-07T06:22:03;6.57;;;4.83;;
49103;SDS011;34915;52.926;11.116;2023-05-07T06:24:29;5.60;;;4.50;;
49103;SDS011;34915;52.926;11.116;2023-05-07T06:26:54;7.77;;;4.40;;
49103;SDS011;34915;52.926;11.116;2023-05-07T06:29:20;6.97;;;4.60;;
49103;SDS011;34915;52.926;11.116;2023-05-07T06:31:46;5.57;;;3.93;;
49103;SDS011;34915;52.926;11.116;2023-05-07T06:34:11;6.90;;;4.20;;
49103;SDS011;34915;52.926;11.116;2023-05-07T06:36:39;4.80;;;4.10;;
49103;SDS011;34915;52.926;11.116;2023-05-07T06:39:08;4.20;;;3.80;;
49103;SDS011;34915;52.926;11.116;2023-05-07T06:41:33;7.70;;;4.33;;
49103;SDS011;34915;52.926;11.116;2023-05-07T06:44:01;5.27;;;4.50;;
49103;SDS011;34915;52.926;11.116;2023-05-07T06:46:27;6.00;;;4.60;;
49103;SDS011;34915;52.926;11.116;2023-05-07T06:48:53;5.80;;;4.47;;
49103;SDS011;34915;52.926;11.116;2023-05-07T06:51:19;5.40;;;4.57;;
49103;SDS011;34915;52.926;11.116;2023-05-07T06:53:44;8.03;;;5.33;;
49103;SDS011;34915;52.926;11.116;2023-05-07T06:56:10;6.17;;;4.90;;
49103;SDS011;34915;52.926;11.116;2023-05-07T06:58:36;8.13;;;5.10;;
49103;SDS011;34915;52.926;11.116;2023-05-07T07:01:02;6.00;;;4.63;;
49103;SDS011;34915;52.926;11.116;2023-05-07T07:03:28;6.67;;;5.07;;
49103;SDS011;34915;52.926;11.116;2023-05-07T07:05:53;7.00;;;4.67;;
49103;SDS011;34915;52.926;11.116;2023-05-07T07:08:19;7.60;;;5.07;;
49103;SDS011;34915;52.926;11.116;2023-05-07T07:10:46;8.63;;;5.23;;
49103;SDS011;34915;52.926;11.116;2023-05-07T07:13:12;6.20;;;4.93;;
49103;SDS011;34915;52.926;11.116;2023-05-07T07:15:40;6.57;;;4.97;;
49103;SDS011;34915;52.926;11.116;2023-05-07T07:18:06;5.63;;;4.70;;
49103;SDS011;34915;52.926;11.116;2023-05-07T07:20:31;7.13;;;4.73;;
49103;SDS011;34915;52.926;11.116;2023-05-07T07:22:57;6.67;;;5.23;;
49103;SDS011;34915;52.926;11.116;2023-05-07T07:25:26;6.43;;;4.77;;
49103;SDS011;34915;52.926;11.116;2023-05-07T07:27:51;7.50;;;5.00;;
49103;SDS011;34915;52.926;11.116;2023-05-07T07:30:17;5.63;;;4.83;;
49103;SDS011;34915;52.926;11.116;2023-05-07T07:32:43;7.37;;;5.20;;
49103;SDS011;34915;52.926;11.116;2023-05-07T07:35:08;5.93;;;5.20;;
49103;SDS011;34915;52.926;11.116;2023-05-07T07:37:35;6.07;;;5.03;;
49103;SDS011;34915;52.926;11.116;2023-05-07T07:40:02;6.40;;;5.40;;
49103;SDS011;34915;52.926;11.116;2023-05-07T07:42:28;6.80;;;5.20;;
49103;SDS011;34915;52.926;11.116;2023-05-07T07:44:54;7.23;;;5.23;;
49103;SDS011;34915;52.926;11.116;2023-05-07T07:47:20;9.07;;;5.90;;
49103;SDS011;34915;52.926;11.116;2023-05-07T07:49:46;8.37;;;6.13;;
49103;SDS011;34915;52.926;11.116;2023-05-07T07:52:11;7.07;;;5.57;;
49103;SDS011;34915;52.926;11.116;2023-05-07T07:54:37;8.80;;;6.10;;
49103;SDS011;34915;52.926;11.116;2023-05-07T07:57:03;6.83;;;6.07;;
49103;SDS011;34915;52.926;11.116;2023-05-07T07:59:28;9.27;;;5.97;;
49103;SDS011;34915;52.926;11.116;2023-05-07T08:01:56;9.60;;;6.17;;
49103;SDS011;34915;52.926;11.116;2023-05-07T08:04:22;7.53;;;5.57;;
49103;SDS011;34915;52.926;11.116;2023-05-07T08:06:48;8.17;;;6.27;;
49103;SDS011;34915;52.926;11.116;2023-05-07T08:09:13;6.43;;;5.43;;
49103;SDS011;34915;52.926;11.116;2023-05-07T08:11:39;7.60;;;6.20;;
49103;SDS011;34915;52.926;11.116;2023-05-07T08:14:05;8.47;;;6.03;;
49103;SDS011;34915;52.926;11.116;2023-05-07T08:16:30;6.03;;;5.40;;
49103;SDS011;34915;52.926;11.116;2023-05-07T08:18:56;7.53;;;5.30;;
49103;SDS011;34915;52.926;11.116;2023-05-07T08:21:22;6.33;;;5.37;;
49103;SDS011;34915;52.926;11.116;2023-05-07T08:23:50;8.57;;;5.83;;
49103;SDS011;34915;52.926;11.116;2023-05-07T08:26:16;6.90;;;5.27;;
49103;SDS011;34915;52.926;11.116;2023-05-07T08:28:41;8.07;;;5.30;;
49103;SDS011;34915;52.926;11.116;2023-05-07T08:31:07;6.17;;;4.93;;
49103;SDS011;34915;52.926;11.116;2023-05-07T08:33:32;7.73;;;6.00;;
49103;SDS011;34915;52.926;11.116;2023-05-07T08:35:58;6.67;;;5.30;;
49103;SDS011;34915;52.926;11.116;2023-05-07T08:38:23;6.20;;;5.27;;
49103;SDS011;34915;52.926;11.116;2023-05-07T08:40:49;7.77;;;6.17;;
49103;SDS011;34915;52.926;11.116;2023-05-07T08:43:15;6.70;;;4.83;;
49103;SDS011;34915;52.926;11.116;2023-05-07T08:45:45;6.23;;;4.93;;
49103;SDS011;34915;52.926;11.116;2023-05-07T08:48:14;5.87;;;5.27;;
49103;SDS011;34915;52.926;11.116;2023-05-07T08:50:41;6.60;;;4.57;;
49103;SDS011;34915;52.926;11.116;2023-05-07T08:53:07;5.17;;;4.63;;
49103;SDS011;34915;52.926;11.116;2023-05-07T08:55:33;5.33;;;4.67;;
49103;SDS011;34915;52.926;11.116;2023-05-07T08:57:59;7.30;;;4.27;;
49103;SDS011;34915;52.926;11.116;2023-05-07T09:00:25;6.13;;;4.33;;
49103;SDS011;34915;52.926;11.116;2023-05-07T09:02:52;4.73;;;4.17;;
49103;SDS011;34915;52.926;11.116;2023-05-07T09:05:18;6.10;;;4.67;;
49103;SDS011;34915;52.926;11.116;2023-05-07T09:07:44;4.20;;;3.80;;
49103;SDS011;34915;52.926;11.116;2023-05-07T09:10:11;6.20;;;4.67;;
49103;SDS011;34915;52.926;11.116;2023-05-07T09:12:39;5.50;;;4.03;;
49103;SDS011;34915;52.926;11.116;2023-05-07T09:15:05;5.23;;;4.50;;
49103;SDS011;34915;52.926;11.116;2023-05-07T09:17:31;5.90;;;4.67;;
49103;SDS011;34915;52.926;11.116;2023-05-07T09:20:02;5.10;;;4.47;;
49103;SDS011;34915;52.926;11.116;2023-05-07T09:22:31;6.40;;;4.40;;
49103;SDS011;34915;52.926;11.116;2023-05-07T09:24:58;5.40;;;4.17;;
49103;SDS011;34915;52.926;11.116;2023-05-07T09:27:24;5.23;;;4.10;;
49103;SDS011;34915;52.926;11.116;2023-05-07T09:29:50;5.10;;;4.47;;
49103;SDS011;34915;52.926;11.116;2023-05-07T09:32:16;6.43;;;5.07;;
49103;SDS011;34915;52.926;11.116;2023-05-07T09:34:42;6.43;;;5.13;;
49103;SDS011;34915;52.926;11.116;2023-05-07T09:37:08;6.93;;;4.90;;
49103;SDS011;34915;52.926;11.116;2023-05-07T09:39:40;6.60;;;4.57;;
49103;SDS011;34915;52.926;11.116;2023-05-07T09:42:10;5.53;;;4.87;;
49103;SDS011;34915;52.926;11.116;2023-05-07T09:44:37;6.17;;;4.40;;
49103;SDS011;34915;52.926;11.116;2023-05-07T09:47:06;7.00;;;4.20;;
49103;SDS011;34915;52.926;11.116;2023-05-07T09:49:36;6.00;;;4.47;;
49103;SDS011;34915;52.926;11.116;2023-05-07T09:52:04;4.40;;;3.87;;
49103;SDS011;34915;52.926;11.116;2023-05-07T09:54:32;4.30;;;3.83;;
49103;SDS011;34915;52.926;11.116;2023-05-07T09:56:59;4.43;;;4.03;;
49103;SDS011;34915;52.926;11.116;2023-05-07T09:59:27;5.27;;;3.87;;
49103;SDS011;34915;52.926;11.116;2023-05-07T10:01:56;4.83;;;3.53;;
49103;SDS011;34915;52.926;11.116;2023-05-07T10:04:24;7.33;;;3.77;;
49103;SDS011;34915;52.926;11.116;2023-05-07T10:06:51;5.03;;;4.10;;
49103;SDS011;34915;52.926;11.116;2023-05-07T10:09:17;4.50;;;3.23;;
49103;SDS011;34915;52.926;11.116;2023-05-07T10:11:43;4.10;;;2.97;;
49103;SDS011;34915;52.926;11.116;2023-05-07T10:14:09;4.77;;;3.73;;
49103;SDS011;34915;52.926;11.116;2023-05-07T10:16:37;4.67;;;3.30;;
49103;SDS011;34915;52.926;11.116;2023-05-07T10:19:03;3.40;;;3.10;;
49103;SDS011;34915;52.926;11.116;2023-05-07T10:21:30;4.77;;;3.10;;
49103;SDS011;34915;52.926;11.116;2023-05-07T10:24:00;4.07;;;3.60;;
49103;SDS011;34915;52.926;11.116;2023-05-07T10:26:35;3.60;;;3.10;;
49103;SDS011;34915;52.926;11.116;2023-05-07T10:29:49;5.27;;;3.70;;
49103;SDS011;34915;52.926;11.116;2023-05-07T10:34:21;7.83;;;4.10;;
49103;SDS011;34915;52.926;11.116;2023-05-07T10:36:51;5.13;;;3.80;;
49103;SDS011;34915;52.926;11.116;2023-05-07T10:39:19;4.40;;;3.53;;
49103;SDS011;34915;52.926;11.116;2023-05-07T10:41:45;5.80;;;3.60;;
49103;SDS011;34915;52.926;11.116;2023-05-07T10:44:11;3.97;;;3.00;;
49103;SDS011;34915;52.926;11.116;2023-05-07T10:46:37;4.13;;;3.70;;
49103;SDS011;34915;52.926;11.116;2023-05-07T10:51:29;3.77;;;3.27;;
49103;SDS011;34915;52.926;11.116;2023-05-07T10:54:38;5.53;;;4.20;;
49103;SDS011;34915;52.926;11.116;2023-05-07T10:56:46;4.60;;;3.73;;
49103;SDS011;34915;52.926;11.116;2023-05-07T11:02:00;3.53;;;3.23;;
49103;SDS011;34915;52.926;11.116;2023-05-07T11:04:31;3.80;;;3.50;;
49103;SDS011;34915;52.926;11.116;2023-05-07T11:15:04;3.83;;;3.20;;
49103;SDS011;34915;52.926;11.116;2023-05-07T11:17:31;4.10;;;3.07;;
49103;SDS011;34915;52.926;11.116;2023-05-07T11:19:59;3.90;;;3.03;;
49103;SDS011;34915;52.926;11.116;2023-05-07T11:25:02;2.40;;;2.20;;
49103;SDS011;34915;52.926;11.116;2023-05-07T11:27:28;2.70;;;2.40;;
49103;SDS011;34915;52.926;11.116;2023-05-07T11:29:55;2.00;;;1.90;;
49103;SDS011;34915;52.926;11.116;2023-05-07T11:32:28;2.20;;;2.00;;
49103;SDS011;34915;52.926;11.116;2023-05-07T11:34:55;2.60;;;2.10;;
49103;SDS011;34915;52.926;11.116;2023-05-07T11:37:22;2.67;;;2.43;;
49103;SDS011;34915;52.926;11.116;2023-05-07T11:39:49;2.60;;;2.10;;
49103;SDS011;34915;52.926;11.116;2023-05-07T11:44:54;2.50;;;2.30;;
49103;SDS011;34915;52.926;11.116;2023-05-07T11:47:20;2.20;;;2.00;;
49103;SDS011;34915;52.926;11.116;2023-05-07T11:49:49;2.10;;;1.90;;
49103;SDS011;34915;52.926;11.116;2023-05-07T11:52:17;3.17;;;2.30;;
49103;SDS011;34915;52.926;11.116;2023-05-07T11:54:54;2.97;;;2.10;;
49103;SDS011;34915;52.926;11.116;2023-05-07T11:57:21;2.60;;;1.90;;
49103;SDS011;34915;52.926;11.116;2023-05-07T11:59:47;1.77;;;1.67;;
49103;SDS011;34915;52.926;11.116;2023-05-07T12:02:13;2.03;;;1.83;;
49103;SDS011;34915;52.926;11.116;2023-05-07T12:04:40;2.33;;;2.00;;
49103;SDS011;34915;52.926;11.116;2023-05-07T12:07:15;1.80;;;1.70;;
49103;SDS011;34915;52.926;11.116;2023-05-07T12:09:42;2.90;;;2.20;;
49103;SDS011;34915;52.926;11.116;2023-05-07T12:12:08;1.93;;;1.80;;
49103;SDS011;34915;52.926;11.116;2023-05-07T12:14:39;1.87;;;1.63;;
49103;SDS011;34915;52.926;11.116;2023-05-07T12:17:12;2.40;;;2.03;;
49103;SDS011;34915;52.926;11.116;2023-05-07T12:19:39;3.03;;;1.87;;
49103;SDS011;34915;52.926;11.116;2023-05-07T12:22:07;1.90;;;1.67;;
49103;SDS011;34915;52.926;11.116;2023-05-07T12:24:47;2.27;;;2.07;;
49103;SDS011;34915;52.926;11.116;2023-05-07T12:27:16;2.43;;;2.00;;
49103;SDS011;34915;52.926;11.116;2023-05-07T12:29:49;1.93;;;1.80;;
49103;SDS011;34915;52.926;11.116;2023-05-07T12:32:19;2.20;;;1.80;;
49103;SDS011;34915;52.926;11.116;2023-05-07T12:34:46;1.70;;;1.60;;
49103;SDS011;34915;52.926;11.116;2023-05-07T12:37:15;2.93;;;2.03;;
49103;SDS011;34915;52.926;11.116;2023-05-07T12:39:44;1.87;;;1.77;;
49103;SDS011;34915;52.926;11.116;2023-05-07T12:42:16;1.90;;;1.80;;
49103;SDS011;34915;52.926;11.116;2023-05-07T12:44:45;2.40;;;1.83;;
49103;SDS011;34915;52.926;11.116;2023-05-07T12:47:11;1.87;;;1.77;;
49103;SDS011;34915;52.926;11.116;2023-05-07T12:49:38;2.07;;;1.80;;
49103;SDS011;34915;52.926;11.116;2023-05-07T12:52:07;1.70;;;1.60;;
49103;SDS011;34915;52.926;11.116;2023-05-07T12:54:34;1.57;;;1.47;;
49103;SDS011;34915;52.926;11.116;2023-05-07T12:57:02;2.07;;;1.80;;
49103;SDS011;34915;52.926;11.116;2023-05-07T12:59:33;1.63;;;1.53;;
49103;SDS011;34915;52.926;11.116;2023-05-07T13:02:03;2.00;;;1.60;;
49103;SDS011;34915;52.926;11.116;2023-05-07T13:04:29;1.50;;;1.37;;
49103;SDS011;34915;52.926;11.116;2023-05-07T13:06:55;1.70;;;1.60;;
49103;SDS011;34915;52.926;11.116;2023-05-07T13:09:20;1.70;;;1.60;;
49103;SDS011;34915;52.926;11.116;2023-05-07T13:11:46;3.83;;;1.63;;
49103;SDS011;34915;52.926;11.116;2023-05-07T13:14:12;1.97;;;1.53;;
49103;SDS011;34915;52.926;11.116;2023-05-07T13:16:37;2.67;;;1.67;;
49103;SDS011;34915;52.926;11.116;2023-05-07T13:19:03;1.90;;;1.80;;
49103;SDS011;34915;52.926;11.116;2023-05-07T13:21:29;1.77;;;1.50;;
49103;SDS011;34915;52.926;11.116;2023-05-07T13:23:58;2.33;;;1.80;;
49103;SDS011;34915;52.926;11.116;2023-05-07T13:26:24;1.83;;;1.50;;
49103;SDS011;34915;52.926;11.116;2023-05-07T13:28:50;3.30;;;1.70;;
49103;SDS011;34915;52.926;11.116;2023-05-07T13:31:19;2.63;;;1.67;;
49103;SDS011;34915;52.926;11.116;2023-05-07T13:33:46;1.60;;;1.40;;
49103;SDS011;34915;52.926;11.116;2023-05-07T13:36:11;2.60;;;1.50;;
49103;SDS011;34915;52.926;11.116;2023-05-07T13:38:40;1.50;;;1.40;;
49103;SDS011;34915;52.926;11.116;2023-05-07T13:41:05;2.37;;;1.30;;
49103;SDS011;34915;52.926;11.116;2023-05-07T13:43:31;2.47;;;1.67;;
49103;SDS011;34915;52.926;11.116;2023-05-07T13:45:58;1.30;;;1.20;;
49103;SDS011;34915;52.926;11.116;2023-05-07T13:48:24;1.47;;;1.37;;
49103;SDS011;34915;52.926;11.116;2023-05-07T13:50:50;1.37;;;1.27;;
49103;SDS011;34915;52.926;11.116;2023-05-07T13:53:16;1.73;;;1.33;;
49103;SDS011;34915;52.926;11.116;2023-05-07T13:55:43;1.60;;;1.50;;
49103;SDS011;34915;52.926;11.116;2023-05-07T13:58:10;1.70;;;1.60;;
49103;SDS011;34915;52.926;11.116;2023-05-07T14:00:36;1.93;;;1.50;;
49103;SDS011;34915;52.926;11.116;2023-05-07T14:03:01;1.50;;;1.40;;
49103;SDS011;34915;52.926;11.116;2023-05-07T14:05:27;2.17;;;1.67;;
49103;SDS011;34915;52.926;11.116;2023-05-07T14:07:56;4.67;;;1.40;;
49103;SDS011;34915;52.926;11.116;2023-05-07T14:10:25;2.23;;;1.40;;
49103;SDS011;34915;52.926;11.116;2023-05-07T14:12:53;1.30;;;1.20;;
49103;SDS011;34915;52.926;11.116;2023-05-07T14:15:19;3.33;;;1.30;;
49103;SDS011;34915;52.926;11.116;2023-05-07T14:17:45;1.47;;;1.37;;
49103;SDS011;34915;52.926;11.116;2023-05-07T14:20:12;1.77;;;1.40;;
49103;SDS011;34915;52.926;11.116;2023-05-07T14:22:46;1.50;;;1.40;;
49103;SDS011;34915;52.926;11.116;2023-05-07T14:25:12;4.80;;;2.93;;
49103;SDS011;34915;52.926;11.116;2023-05-07T14:27:38;2.03;;;1.73;;
49103;SDS011;34915;52.926;11.116;2023-05-07T14:30:04;1.40;;;1.30;;
49103;SDS011;34915;52.926;11.116;2023-05-07T14:32:30;1.30;;;1.20;;
49103;SDS011;34915;52.926;11.116;2023-05-07T14:34:56;1.20;;;1.10;;
49103;SDS011;34915;52.926;11.116;2023-05-07T14:37:21;1.43;;;1.27;;
49103;SDS011;34915;52.926;11.116;2023-05-07T14:39:47;1.93;;;1.50;;
49103;SDS011;34915;52.926;11.116;2023-05-07T14:42:12;2.37;;;1.20;;
49103;SDS011;34915;52.926;11.116;2023-05-07T14:44:38;1.53;;;1.43;;
49103;SDS011;34915;52.926;11.116;2023-05-07T14:47:06;2.00;;;1.50;;
49103;SDS011;34915;52.926;11.116;2023-05-07T14:49:33;1.80;;;1.30;;
49103;SDS011;34915;52.926;11.116;2023-05-07T14:51:59;1.80;;;1.40;;